Los Alamitos Army Air Field Los Alamitos US
ICAO: KSLI
IATA: SLI
Category: Medium
Scheduled Services: No

Elevation: 32 ft
TransAlt. 18000 ft.

Airport Communications:
SOCAL APP/DEP:124.65
AFLD OPS ADVSY SVC:126.2
GND:126.95
AASF OPS:41.5
PMSV METRO:23.98
ARCOM OPS:139.05
TWR:123.85

KSLI Zoom In..

If Map Doesn't Load, Click Here

Runways:

(A) RW 04L length 5900 ft width 150 ft
---- / hdg 40

(B) RW 04R length 8000 ft width 200 ft
---- / hdg 40

(C) RW 22L length 8000 ft width 200 ft
---- / hdg 220

(D) RW 22R length 5900 ft width 150 ft
---- / hdg 220

Location; KSLI
Day. 21 / Time. 14.58 Zulu
* Altimeter: 29.98
* Temperature: 19° c. 66.2°f.
* Wind from: 000° Speed 00 kn.
Dewpoint: 16° c.
Visibility: 7 Statute Miles.
Clouds: Few 1500 ft.

KSLI 211458Z 00000KT 7SM FEW015 19/16 A2998 RMK AO2A SLP155 T01860162 53014


Wind - Calm.

 
 
jpsmedia.com for Web Design worldairports.se 2018   terms of use